Time;durP1;ratioP1;P1;durP2;ratioP2;P2;SDS_P1;SDS_P2;PMS_P1;PMS_P2;Temp;Humidity;BMP_temperature;BMP_pressure;BME280_temperature;BME280_humidity;BME280_pressure;Samples;Min_cycle;Max_cycle;Signal;HPM_P1;HPM_P2
2022/09/15 00:01:01;;;;;;;25.13;16.55;;;14.60;99.90;;;;;;4945842;29;20202;-82
2022/09/15 00:03:29;;;;;;;25.20;17.05;;;14.60;99.90;;;;;;4944795;28;20210;-82
2022/09/15 00:05:56;;;;;;;18.88;15.25;;;14.70;99.90;;;;;;4951221;29;20229;-82
2022/09/15 00:08:24;;;;;;;19.77;15.15;;;14.60;99.90;;;;;;4958571;29;20194;-83
2022/09/15 00:10:54;;;;;;;23.92;17.55;;;14.60;99.90;;;;;;4931119;29;20204;-82
2022/09/15 00:13:23;;;;;;;24.55;16.85;;;14.40;99.90;;;;;;4945785;29;20198;-82
2022/09/15 00:15:50;;;;;;;23.77;16.23;;;14.40;99.90;;;;;;4945998;29;20229;-82
2022/09/15 00:18:19;;;;;;;22.73;16.52;;;14.50;99.90;;;;;;4933222;29;20194;-82
2022/09/15 00:20:47;;;;;;;21.42;16.52;;;14.50;99.90;;;;;;4936330;28;20217;-83
2022/09/15 00:23:16;;;;;;;24.23;17.95;;;14.50;99.90;;;;;;4948863;29;20213;-83
2022/09/15 00:25:44;;;;;;;24.05;17.15;;;14.40;99.90;;;;;;4947070;28;20232;-82
2022/09/15 00:28:13;;;;;;;27.70;17.52;;;14.40;99.90;;;;;;4949104;29;20198;-83
2022/09/15 00:30:42;;;;;;;21.67;15.90;;;14.40;99.90;;;;;;4943859;28;20202;-82
2022/09/15 00:33:09;;;;;;;24.60;17.83;;;14.50;99.90;;;;;;4943941;29;20232;-82
2022/09/15 00:35:40;;;;;;;26.70;18.42;;;14.40;99.90;;;;;;4944583;29;20222;-82
2022/09/15 00:38:09;;;;;;;26.45;17.88;;;14.40;99.90;;;;;;4951516;28;20204;-82
2022/09/15 00:40:44;;;;;;;27.42;18.45;;;14.30;99.90;;;;;;4945589;29;20197;-82
2022/09/15 00:43:12;;;;;;;26.13;19.02;;;14.40;99.90;;;;;;4943656;29;20201;-82
2022/09/15 00:45:40;;;;;;;28.15;18.38;;;14.40;99.90;;;;;;4941036;29;20233;-82
2022/09/15 00:48:12;;;;;;;25.50;17.45;;;14.30;99.90;;;;;;4942641;29;20213;-82
2022/09/15 00:50:43;;;;;;;28.92;18.77;;;14.50;99.90;;;;;;4975668;28;20193;-82
2022/09/15 00:53:12;;;;;;;25.40;17.73;;;14.30;99.90;;;;;;4952590;29;20217;-82
2022/09/15 00:55:44;;;;;;;25.02;17.95;;;14.30;99.90;;;;;;4944900;29;20222;-82
2022/09/15 00:58:14;;;;;;;22.50;16.08;;;14.30;99.90;;;;;;4944607;29;20202;-83
2022/09/15 01:00:46;;;;;;;25.67;18.30;;;14.30;99.90;;;;;;4978064;28;20204;-82
2022/09/15 01:03:14;;;;;;;23.67;17.88;;;14.40;99.90;;;;;;4945096;29;20194;-83
2022/09/15 01:05:52;;;;;;;23.60;18.48;;;14.30;99.90;;;;;;4942144;29;20233;-82
2022/09/15 01:08:25;;;;;;;24.05;17.42;;;14.40;99.90;;;;;;4937538;29;20202;-82
2022/09/15 01:10:53;;;;;;;22.83;17.42;;;14.40;99.90;;;;;;4938346;29;20201;-83
2022/09/15 01:13:20;;;;;;;26.27;18.10;;;14.40;99.90;;;;;;4942184;29;20221;-82
2022/09/15 01:16:07;;;;;;;22.65;15.93;;;14.50;99.90;;;;;;4942594;29;20604;-82
2022/09/15 01:18:45;;;;;;;19.60;14.35;;;14.60;99.90;;;;;;4942173;29;20201;-82
2022/09/15 01:21:31;;;;;;;19.02;15.35;;;14.60;99.90;;;;;;4943386;29;20205;-82
2022/09/15 01:24:45;;;;;;;28.75;15.88;;;14.50;99.90;;;;;;4944013;28;20221;-82
2022/09/15 01:27:28;;;;;;;22.05;15.38;;;14.40;99.90;;;;;;4940997;29;20213;-82
2022/09/15 01:30:04;;;;;;;24.42;16.48;;;14.40;99.90;;;;;;4925022;29;20213;-82
2022/09/15 01:35:39;;;;;;;23.33;16.67;;;14.20;99.90;;;;;;4943704;29;20221;-82
2022/09/15 01:38:13;;;;;;;24.85;16.40;;;14.20;99.90;;;;;;4944065;29;20201;-82
2022/09/15 01:40:48;;;;;;;20.63;15.18;;;14.30;99.90;;;;;;4945293;29;20202;-82
2022/09/15 01:43:17;;;;;;;21.20;15.57;;;14.20;99.90;;;;;;4938589;29;20194;-82
2022/09/15 01:45:48;;;;;;;23.85;16.98;;;14.20;99.90;;;;;;4975156;28;20694;-82
2022/09/15 01:48:19;;;;;;;28.60;17.98;;;14.10;99.90;;;;;;4928331;29;20206;-82
2022/09/15 01:50:51;;;;;;;24.27;17.38;;;14.00;99.90;;;;;;4941819;29;20217;-82
2022/09/15 01:53:21;;;;;;;26.33;17.50;;;14.00;99.90;;;;;;4946176;29;20210;-82
2022/09/15 01:55:53;;;;;;;25.33;18.17;;;14.00;99.90;;;;;;4947952;29;20221;-82
2022/09/15 01:58:21;;;;;;;24.10;16.40;;;14.10;99.90;;;;;;4979484;28;20197;-82
2022/09/15 02:00:55;;;;;;;22.73;16.90;;;14.20;99.90;;;;;;4946244;29;20205;-83
2022/09/15 02:03:32;;;;;;;26.73;17.65;;;14.30;99.90;;;;;;4964693;29;20192;-82
2022/09/15 02:06:06;;;;;;;21.48;16.65;;;14.20;99.90;;;;;;4943611;29;20210;-83
2022/09/15 02:08:41;;;;;;;28.77;17.55;;;14.10;99.90;;;;;;4946433;29;20209;-82
2022/09/15 02:11:15;;;;;;;24.38;17.05;;;14.00;99.90;;;;;;4945860;29;20217;-83
2022/09/15 02:13:54;;;;;;;26.27;18.50;;;14.10;99.90;;;;;;4944664;29;20229;-82
2022/09/15 02:16:25;;;;;;;24.27;17.58;;;14.10;99.90;;;;;;4952668;28;20285;-83
2022/09/15 02:19:14;;;;;;;23.52;17.27;;;14.10;99.90;;;;;;4928360;28;20214;-83
2022/09/15 02:21:52;;;;;;;25.83;18.13;;;14.00;99.90;;;;;;4946203;29;20205;-82
2022/09/15 02:24:25;;;;;;;24.63;18.40;;;14.00;99.90;;;;;;4966252;28;20214;-82
2022/09/15 02:26:54;;;;;;;26.63;17.17;;;14.00;99.90;;;;;;4977511;28;20202;-82
2022/09/15 02:29:25;;;;;;;24.92;18.45;;;13.90;99.90;;;;;;4957057;29;20594;-82
2022/09/15 02:31:56;;;;;;;29.25;18.75;;;13.90;99.90;;;;;;4946937;29;20197;-83
2022/09/15 02:34:27;;;;;;;23.80;17.73;;;14.00;99.90;;;;;;4929422;29;20230;-83
2022/09/15 02:36:56;;;;;;;22.95;17.08;;;14.00;99.90;;;;;;4971606;28;20213;-82
2022/09/15 02:39:29;;;;;;;21.83;15.45;;;14.00;99.90;;;;;;4963043;28;20202;-82
2022/09/15 02:41:58;;;;;;;24.35;15.68;;;14.00;99.90;;;;;;4956340;29;20190;-82
2022/09/15 02:44:26;;;;;;;23.10;16.95;;;14.10;99.90;;;;;;4946448;29;20613;-82
2022/09/15 02:46:54;;;;;;;26.85;17.00;;;14.10;99.90;;;;;;4947756;28;20231;-82
2022/09/15 02:49:22;;;;;;;20.45;15.90;;;14.00;99.90;;;;;;4971251;28;20194;-82
2022/09/15 02:51:49;;;;;;;28.65;17.52;;;14.00;99.90;;;;;;4977418;28;20457;-82
2022/09/15 02:54:17;;;;;;;28.00;18.20;;;13.90;99.90;;;;;;4946458;29;20218;-82
2022/09/15 02:56:45;;;;;;;22.83;18.58;;;13.90;99.90;;;;;;4946133;29;20222;-82
2022/09/15 02:59:12;;;;;;;28.20;17.70;;;13.90;99.90;;;;;;4945861;28;20213;-82
2022/09/15 03:01:40;;;;;;;27.65;18.67;;;14.00;99.90;;;;;;4956418;28;20197;-82
2022/09/15 03:04:09;;;;;;;29.00;19.85;;;13.90;99.90;;;;;;4945847;29;20673;-82
2022/09/15 03:06:36;;;;;;;31.52;18.77;;;13.90;99.90;;;;;;4946102;29;20202;-82
2022/09/15 03:09:07;;;;;;;25.75;18.38;;;13.90;99.90;;;;;;4946186;29;20658;-82
2022/09/15 03:11:35;;;;;;;29.65;18.70;;;14.10;99.90;;;;;;4970384;28;20202;-82
2022/09/15 03:14:04;;;;;;;25.75;17.58;;;14.00;99.90;;;;;;4941940;29;20234;-82
2022/09/15 03:16:33;;;;;;;27.05;17.88;;;14.00;99.90;;;;;;4943239;28;20209;-82
2022/09/15 03:19:01;;;;;;;26.08;17.85;;;14.00;99.90;;;;;;4952009;29;20204;-82
2022/09/15 03:21:30;;;;;;;30.95;19.75;;;14.10;99.90;;;;;;4943055;29;20693;-82
2022/09/15 03:23:58;;;;;;;28.15;19.80;;;13.90;99.90;;;;;;4957325;29;20221;-82
2022/09/15 03:26:26;;;;;;;27.23;18.92;;;13.90;99.90;;;;;;4932683;29;20202;-82
2022/09/15 03:28:53;;;;;;;30.33;19.95;;;13.90;99.90;;;;;;4941008;29;20198;-82
2022/09/15 03:31:21;;;;;;;27.77;18.63;;;13.90;99.90;;;;;;4947255;29;20202;-82
2022/09/15 03:33:48;;;;;;;26.27;19.02;;;14.00;99.90;;;;;;4948330;28;20701;-82
2022/09/15 03:36:16;;;;;;;27.70;18.63;;;14.10;99.90;;;;;;4943448;29;20213;-82
2022/09/15 03:38:45;;;;;;;24.55;17.17;;;14.20;99.90;;;;;;4943566;29;20209;-82
2022/09/15 03:41:13;;;;;;;27.15;16.83;;;14.10;99.90;;;;;;4942713;29;20198;-82
2022/09/15 03:43:41;;;;;;;24.92;16.67;;;14.10;99.90;;;;;;4936465;29;20213;-82
2022/09/15 03:46:11;;;;;;;25.13;17.02;;;14.20;99.90;;;;;;4924383;29;20199;-82
2022/09/15 03:48:39;;;;;;;27.08;18.10;;;14.00;99.90;;;;;;4933861;29;20218;-82
2022/09/15 03:51:08;;;;;;;27.15;18.60;;;14.00;99.90;;;;;;4972364;28;20202;-82
2022/09/15 03:53:37;;;;;;;26.58;18.40;;;14.10;99.90;;;;;;4948179;28;20216;-82
2022/09/15 03:56:13;;;;;;;27.25;17.85;;;14.20;99.90;;;;;;4946317;29;20217;-82
2022/09/15 03:58:41;;;;;;;24.40;17.70;;;14.20;99.90;;;;;;4943212;29;20197;-82
2022/09/15 04:01:08;;;;;;;31.40;19.92;;;14.10;99.90;;;;;;4943222;28;20202;-82
2022/09/15 04:03:36;;;;;;;24.40;17.30;;;14.10;99.90;;;;;;4946405;28;20190;-81
2022/09/15 04:06:03;;;;;;;28.67;19.40;;;14.00;99.90;;;;;;4949040;29;20210;-81
2022/09/15 04:08:31;;;;;;;28.08;18.50;;;14.10;99.90;;;;;;4935060;28;20201;-81
2022/09/15 04:10:59;;;;;;;27.90;18.40;;;14.20;99.90;;;;;;4937993;29;20201;-81
2022/09/15 04:13:27;;;;;;;25.30;17.85;;;14.20;99.90;;;;;;4945743;29;20221;-81
2022/09/15 04:16:00;;;;;;;28.15;18.40;;;14.20;99.90;;;;;;4949012;28;20230;-81
2022/09/15 04:18:30;;;;;;;25.83;17.58;;;14.10;99.90;;;;;;4945846;29;20217;-81
2022/09/15 04:20:59;;;;;;;25.30;17.13;;;14.20;99.90;;;;;;4963378;29;20590;-81
2022/09/15 04:23:26;;;;;;;28.33;17.77;;;14.10;99.90;;;;;;4977172;28;20206;-81
2022/09/15 04:25:55;;;;;;;25.20;17.10;;;14.20;99.90;;;;;;4941180;29;20214;-81
2022/09/15 04:28:23;;;;;;;30.05;18.02;;;14.30;99.90;;;;;;4945342;29;20204;-81
2022/09/15 04:30:52;;;;;;;29.15;18.75;;;14.20;99.90;;;;;;4946038;29;20198;-81
2022/09/15 04:33:19;;;;;;;28.65;18.67;;;14.20;99.90;;;;;;4945892;29;20229;-81
2022/09/15 04:35:47;;;;;;;23.42;16.65;;;14.20;99.90;;;;;;4945678;28;20225;-81
2022/09/15 04:38:15;;;;;;;25.67;17.95;;;14.20;99.90;;;;;;4947248;29;20197;-81
2022/09/15 04:40:42;;;;;;;25.23;18.25;;;14.30;99.90;;;;;;4952384;28;20197;-81
2022/09/15 04:43:10;;;;;;;24.95;17.55;;;14.30;99.90;;;;;;4946642;29;20205;-81
2022/09/15 04:45:37;;;;;;;25.77;18.15;;;14.30;99.90;;;;;;4963894;28;20224;-81
2022/09/15 04:48:06;;;;;;;26.60;18.42;;;14.20;99.90;;;;;;4950706;29;20205;-81
2022/09/15 04:50:33;;;;;;;28.42;19.20;;;14.10;99.90;;;;;;4953214;28;20197;-81
2022/09/15 04:53:02;;;;;;;24.30;18.02;;;14.20;99.90;;;;;;4944987;29;20213;-81
2022/09/15 04:55:32;;;;;;;30.48;20.60;;;14.30;99.90;;;;;;4945827;29;20217;-81
2022/09/15 04:57:59;;;;;;;33.08;19.17;;;14.20;99.90;;;;;;4949587;29;20213;-81
2022/09/15 05:00:27;;;;;;;26.05;18.77;;;14.30;99.90;;;;;;4976875;28;20202;-81
2022/09/15 05:02:55;;;;;;;27.15;19.58;;;14.20;99.90;;;;;;4945416;29;20201;-81
2022/09/15 05:05:24;;;;;;;28.75;19.83;;;14.20;99.90;;;;;;4961349;28;20225;-81
2022/09/15 05:07:52;;;;;;;28.02;18.10;;;14.30;99.90;;;;;;4961708;28;20197;-81
2022/09/15 05:10:20;;;;;;;30.95;18.55;;;14.30;99.90;;;;;;4944346;29;20213;-81
2022/09/15 05:12:48;;;;;;;28.42;19.38;;;14.30;99.90;;;;;;4944742;29;20201;-81
2022/09/15 05:15:15;;;;;;;33.55;19.13;;;14.20;99.90;;;;;;4945486;29;20221;-81
2022/09/15 05:17:43;;;;;;;29.38;19.63;;;14.10;99.90;;;;;;4945894;29;20209;-81
2022/09/15 05:20:10;;;;;;;28.80;19.73;;;14.20;99.90;;;;;;4950458;29;20213;-80
2022/09/15 05:22:39;;;;;;;27.25;18.10;;;14.10;99.90;;;;;;4951325;29;20212;-80
2022/09/15 05:25:07;;;;;;;26.42;19.05;;;14.10;99.90;;;;;;4979171;28;20217;-80
2022/09/15 05:27:34;;;;;;;29.52;19.95;;;14.10;99.90;;;;;;4954810;29;20202;-80
2022/09/15 05:30:02;;;;;;;28.15;18.27;;;14.10;99.90;;;;;;4955334;29;20214;-81
2022/09/15 05:32:30;;;;;;;27.55;18.25;;;14.20;99.90;;;;;;4947492;29;20197;-81
2022/09/15 05:34:57;;;;;;;30.15;19.02;;;14.30;99.90;;;;;;4950168;29;20229;-81
2022/09/15 05:37:25;;;;;;;23.83;16.50;;;14.20;99.90;;;;;;4946078;29;20197;-81
2022/09/15 05:39:53;;;;;;;26.48;16.83;;;14.40;99.90;;;;;;4949880;29;20202;-81
2022/09/15 05:42:22;;;;;;;27.60;18.83;;;14.30;99.90;;;;;;4979374;28;20198;-80
2022/09/15 05:44:49;;;;;;;26.17;17.75;;;14.30;99.90;;;;;;4943965;29;20218;-81
2022/09/15 05:47:17;;;;;;;26.08;17.70;;;14.40;99.90;;;;;;4948591;28;20221;-81
2022/09/15 05:49:44;;;;;;;29.65;18.80;;;14.40;99.90;;;;;;4945301;29;20204;-80
2022/09/15 05:52:12;;;;;;;26.75;18.58;;;14.40;99.90;;;;;;4929694;29;20667;-80
2022/09/15 05:54:40;;;;;;;23.45;16.90;;;14.30;99.90;;;;;;4941804;29;20682;-81
2022/09/15 05:57:09;;;;;;;30.13;17.75;;;14.40;99.90;;;;;;4966684;29;20198;-81
2022/09/15 05:59:38;;;;;;;36.20;19.20;;;14.50;99.90;;;;;;4947936;29;20206;-81
2022/09/15 06:02:06;;;;;;;33.53;18.90;;;14.50;99.90;;;;;;4967039;28;20194;-81
2022/09/15 06:04:33;;;;;;;26.20;17.15;;;14.50;99.90;;;;;;4947465;29;20225;-81
2022/09/15 06:07:01;;;;;;;26.77;17.02;;;14.50;99.90;;;;;;4976601;28;20198;-81
2022/09/15 06:09:30;;;;;;;27.85;18.25;;;14.60;99.90;;;;;;4948784;29;20204;-81
2022/09/15 06:11:57;;;;;;;28.95;18.77;;;14.50;99.90;;;;;;4949099;29;20197;-81
2022/09/15 06:14:26;;;;;;;27.55;17.77;;;14.60;99.90;;;;;;4941989;29;20721;-81
2022/09/15 06:16:54;;;;;;;27.05;18.13;;;14.60;99.90;;;;;;4961798;28;20205;-81
2022/09/15 06:19:21;;;;;;;27.25;17.55;;;14.60;99.90;;;;;;4963465;28;20208;-81
2022/09/15 06:21:48;;;;;;;28.05;19.50;;;14.60;99.90;;;;;;4950026;28;20211;-81
2022/09/15 06:24:16;;;;;;;23.95;17.73;;;14.60;99.90;;;;;;4949546;29;20209;-81
2022/09/15 06:26:50;;;;;;;28.92;19.92;;;14.60;99.90;;;;;;4949877;29;20210;-80
2022/09/15 06:29:18;;;;;;;27.13;17.98;;;14.80;99.90;;;;;;4964843;28;20189;-81
2022/09/15 06:31:47;;;;;;;23.85;16.95;;;14.90;99.90;;;;;;4952558;28;20227;-81
2022/09/15 06:34:14;;;;;;;24.02;17.42;;;15.00;99.90;;;;;;4964671;28;20213;-81
2022/09/15 06:36:42;;;;;;;24.27;17.65;;;15.00;99.90;;;;;;4949424;28;20201;-81
2022/09/15 06:39:09;;;;;;;23.13;16.75;;;15.00;99.90;;;;;;4980665;28;20208;-81
2022/09/15 06:41:37;;;;;;;26.95;17.45;;;15.10;99.90;;;;;;4947631;28;20212;-81
2022/09/15 06:44:04;;;;;;;23.70;17.05;;;14.90;99.90;;;;;;4955647;28;20229;-81
2022/09/15 06:46:32;;;;;;;22.85;16.25;;;14.90;99.90;;;;;;4950131;29;20209;-81
2022/09/15 06:49:01;;;;;;;26.83;17.45;;;14.90;99.90;;;;;;4948790;29;20213;-81
2022/09/15 06:51:34;;;;;;;27.40;18.00;;;15.00;99.90;;;;;;4947574;29;20205;-81
2022/09/15 06:54:05;;;;;;;29.58;17.55;;;15.10;99.90;;;;;;4948671;29;20239;-81
2022/09/15 06:56:33;;;;;;;20.83;16.00;;;15.20;99.90;;;;;;4951833;28;20208;-81
2022/09/15 06:59:01;;;;;;;26.83;17.67;;;15.20;99.90;;;;;;4980708;28;20690;-81
2022/09/15 07:01:30;;;;;;;26.63;17.70;;;15.10;99.90;;;;;;4980644;28;20352;-81
2022/09/15 07:03:59;;;;;;;22.77;16.70;;;15.10;99.90;;;;;;4947803;29;20236;-80
2022/09/15 07:06:32;;;;;;;35.22;17.90;;;15.20;99.90;;;;;;4946349;29;20194;-81
2022/09/15 07:09:01;;;;;;;22.58;16.30;;;15.30;99.90;;;;;;4936246;29;20201;-81
2022/09/15 07:11:29;;;;;;;20.75;14.88;;;15.40;99.90;;;;;;4948490;28;20198;-81
2022/09/15 07:13:57;;;;;;;21.35;16.73;;;15.40;99.90;;;;;;4947762;29;20221;-81
2022/09/15 07:16:25;;;;;;;20.15;15.07;;;15.40;99.90;;;;;;4947687;28;20226;-81
2022/09/15 07:18:55;;;;;;;20.33;14.80;;;15.50;99.90;;;;;;4933333;29;20244;-81
2022/09/15 07:21:23;;;;;;;18.67;14.60;;;15.50;99.90;;;;;;4952390;28;20681;-81
2022/09/15 07:23:52;;;;;;;21.98;16.13;;;15.60;99.90;;;;;;4975808;28;20202;-81
2022/09/15 07:26:21;;;;;;;21.92;14.60;;;15.60;99.90;;;;;;4943722;29;20203;-81
2022/09/15 07:28:51;;;;;;;22.67;15.07;;;15.60;99.90;;;;;;4979860;28;20197;-81
2022/09/15 07:31:20;;;;;;;19.20;14.20;;;15.60;99.90;;;;;;4945781;29;20202;-81
2022/09/15 07:33:48;;;;;;;17.80;13.40;;;15.70;99.90;;;;;;4980362;28;20205;-81
2022/09/15 07:36:16;;;;;;;17.42;10.15;;;15.80;99.90;;;;;;4965830;28;20209;-81
2022/09/15 07:38:46;;;;;;;12.93;9.10;;;15.80;99.90;;;;;;4948604;28;20213;-81
2022/09/15 07:41:18;;;;;;;13.77;8.52;;;15.70;99.90;;;;;;4944095;28;20203;-81
2022/09/15 07:43:46;;;;;;;9.73;7.88;;;15.80;99.90;;;;;;4979479;28;20201;-81
2022/09/15 07:46:14;;;;;;;14.30;8.65;;;15.90;99.90;;;;;;4964282;29;20198;-81
2022/09/15 07:48:44;;;;;;;11.00;7.50;;;16.00;99.90;;;;;;4947640;29;20206;-81
2022/09/15 07:51:11;;;;;;;9.38;6.28;;;16.00;99.90;;;;;;4945379;29;20342;-81
2022/09/15 07:53:39;;;;;;;12.73;7.68;;;15.90;99.90;;;;;;4979607;28;20234;-81
2022/09/15 07:56:08;;;;;;;12.57;8.07;;;16.00;99.90;;;;;;4940172;29;20220;-81
2022/09/15 07:58:36;;;;;;;14.57;9.27;;;16.00;99.90;;;;;;4946807;29;20205;-81
2022/09/15 08:01:06;;;;;;;15.75;11.40;;;16.00;99.90;;;;;;4944901;29;20207;-81
2022/09/15 08:03:33;;;;;;;18.70;11.07;;;16.10;99.90;;;;;;4938814;28;20208;-81
2022/09/15 08:06:02;;;;;;;18.92;11.13;;;16.00;99.90;;;;;;4941017;28;20216;-81
2022/09/15 08:08:30;;;;;;;14.13;9.73;;;16.00;99.90;;;;;;4947688;29;20221;-81
2022/09/15 08:10:58;;;;;;;12.13;9.77;;;16.10;99.90;;;;;;4965838;29;20181;-81
2022/09/15 08:13:25;;;;;;;12.10;8.05;;;16.20;99.90;;;;;;4965555;29;20182;-81
2022/09/15 08:15:54;;;;;;;10.85;6.10;;;16.20;99.90;;;;;;4963663;29;20234;-81
2022/09/15 08:18:22;;;;;;;10.15;6.63;;;16.20;99.90;;;;;;4965863;29;20186;-81
2022/09/15 08:20:49;;;;;;;7.68;5.80;;;16.20;99.90;;;;;;4948997;29;20197;-81
2022/09/15 08:23:17;;;;;;;9.80;6.25;;;16.30;99.90;;;;;;4947762;29;20207;-81
2022/09/15 08:25:44;;;;;;;11.35;7.47;;;16.30;99.90;;;;;;4947935;29;20217;-81
2022/09/15 08:28:12;;;;;;;9.43;6.85;;;16.40;99.90;;;;;;4979535;28;20217;-81
2022/09/15 08:30:39;;;;;;;12.32;7.93;;;16.50;99.90;;;;;;4948156;29;20205;-81
2022/09/15 08:33:08;;;;;;;13.88;7.35;;;16.50;99.90;;;;;;4948701;29;20217;-81
2022/09/15 08:35:36;;;;;;;13.02;8.38;;;16.70;99.90;;;;;;4940299;29;20222;-81
2022/09/15 08:38:03;;;;;;;10.82;7.65;;;16.60;99.90;;;;;;4948258;29;20197;-81
2022/09/15 08:40:35;;;;;;;11.55;6.40;;;16.70;99.90;;;;;;4947541;29;20201;-81
2022/09/15 08:43:13;;;;;;;13.02;7.30;;;16.70;99.90;;;;;;4947085;29;20209;-81
2022/09/15 08:45:47;;;;;;;12.45;9.07;;;16.80;99.90;;;;;;4965401;28;20697;-81
2022/09/15 08:48:19;;;;;;;12.52;8.57;;;16.80;99.90;;;;;;4947725;29;20193;-81
2022/09/15 08:50:51;;;;;;;15.73;9.13;;;16.80;99.90;;;;;;4965568;29;20178;-81
2022/09/15 08:53:24;;;;;;;12.15;8.40;;;16.80;99.90;;;;;;4947493;29;20198;-81
2022/09/15 08:55:54;;;;;;;12.25;7.68;;;17.00;99.90;;;;;;4940207;29;20225;-81
2022/09/15 08:58:24;;;;;;;11.23;7.88;;;17.10;99.90;;;;;;4948890;29;20212;-81
2022/09/15 09:00:59;;;;;;;10.38;6.32;;;17.20;99.90;;;;;;4966394;29;20201;-81
2022/09/15 09:03:57;;;;;;;6.93;2.30;;;17.10;99.90;;;;;;4950878;29;20201;-81
2022/09/15 09:06:31;;;;;;;6.80;2.10;;;17.00;99.90;;;;;;4950370;29;20198;-81
2022/09/15 09:09:15;;;;;;;4.40;1.70;;;17.10;99.90;;;;;;4951222;29;20197;-81
2022/09/15 09:12:08;;;;;;;4.57;1.67;;;17.40;99.90;;;;;;4951674;29;20202;-81
2022/09/15 09:14:49;;;;;;;3.00;1.25;;;17.50;99.90;;;;;;4951993;29;20236;-81
2022/09/15 09:17:30;;;;;;;5.00;1.40;;;17.30;99.90;;;;;;4963439;29;20209;-81
2022/09/15 09:20:19;;;;;;;7.40;1.50;;;17.10;99.90;;;;;;4933874;29;20199;-81
2022/09/15 09:22:50;;;;;;;3.28;1.17;;;17.20;99.90;;;;;;4947733;24;20230;-81
2022/09/15 09:25:20;;;;;;;4.20;1.48;;;17.40;99.90;;;;;;4930371;29;20203;-81
2022/09/15 09:27:48;;;;;;;4.80;1.27;;;17.30;99.90;;;;;;4931414;29;20199;-81
2022/09/15 09:30:18;;;;;;;5.65;1.67;;;17.20;99.90;;;;;;4930767;29;20214;-81
2022/09/15 09:32:51;;;;;;;5.10;1.33;;;17.30;99.90;;;;;;4930917;29;20225;-81
2022/09/15 09:35:28;;;;;;;4.15;1.30;;;17.30;99.90;;;;;;4930927;29;20205;-81
2022/09/15 09:37:56;;;;;;;7.55;1.27;;;17.40;99.90;;;;;;4931928;29;20195;-81
2022/09/15 09:40:24;;;;;;;4.20;1.30;;;17.60;99.90;;;;;;4930831;29;20211;-81
2022/09/15 09:42:51;;;;;;;3.38;1.08;;;17.60;99.90;;;;;;4930944;29;20229;-81
2022/09/15 09:45:19;;;;;;;4.25;1.10;;;17.60;99.70;;;;;;4929972;29;20218;-81
2022/09/15 09:47:47;;;;;;;3.03;1.15;;;17.60;99.20;;;;;;4929964;29;20216;-81
2022/09/15 09:50:37;;;;;;;4.18;1.35;;;17.60;99.90;;;;;;4930170;29;20218;-81
2022/09/15 09:53:19;;;;;;;4.60;0.90;;;17.60;99.90;;;;;;4930837;29;20230;-81
2022/09/15 09:55:47;;;;;;;2.28;1.20;;;17.50;99.90;;;;;;4929219;29;20215;-81
2022/09/15 09:58:19;;;;;;;2.63;0.98;;;17.50;99.90;;;;;;4931839;29;20187;-81
2022/09/15 10:00:47;;;;;;;2.38;1.10;;;17.50;99.90;;;;;;4930618;29;20203;-81
2022/09/15 10:03:17;;;;;;;4.07;1.30;;;17.50;99.90;;;;;;4931182;29;20233;-81
2022/09/15 10:06:00;;;;;;;2.50;0.98;;;17.50;99.90;;;;;;4933831;29;20205;-81
2022/09/15 10:08:27;;;;;;;4.20;1.08;;;17.50;99.90;;;;;;4933536;29;20218;-81
2022/09/15 10:11:02;;;;;;;5.75;1.20;;;17.50;99.90;;;;;;4933324;29;20203;-81
2022/09/15 10:13:30;;;;;;;3.38;1.10;;;17.50;99.90;;;;;;4937994;29;20226;-81
2022/09/15 10:16:00;;;;;;;2.67;1.23;;;17.50;99.90;;;;;;4931753;29;20203;-81
2022/09/15 10:18:35;;;;;;;4.50;1.50;;;17.40;99.90;;;;;;4960845;28;20210;-81
2022/09/15 10:21:05;;;;;;;5.43;1.40;;;17.30;99.90;;;;;;4922185;29;20207;-80
2022/09/15 10:23:34;;;;;;;3.28;1.20;;;17.30;99.90;;;;;;4927123;29;20231;-81
2022/09/15 10:26:21;;;;;;;2.25;1.27;;;17.10;99.90;;;;;;4923916;29;20203;-81
2022/09/15 10:29:10;;;;;;;5.53;1.42;;;17.10;99.90;;;;;;4946697;29;20199;-81
2022/09/15 10:31:38;;;;;;;5.10;1.35;;;17.00;99.90;;;;;;4926291;29;20226;-81
2022/09/15 10:34:25;;;;;;;3.42;1.20;;;16.90;99.90;;;;;;4930485;29;20563;-81
2022/09/15 10:37:16;;;;;;;3.35;0.90;;;16.90;99.90;;;;;;4930003;29;20215;-82
2022/09/15 10:39:53;;;;;;;5.82;1.58;;;16.90;99.90;;;;;;4928911;29;20203;-81
2022/09/15 10:42:32;;;;;;;3.97;2.20;;;16.60;99.90;;;;;;4933109;29;20231;-81
2022/09/15 10:45:14;;;;;;;7.55;2.42;;;16.10;99.90;;;;;;4929479;29;20210;-81
2022/09/15 10:47:56;;;;;;;7.18;1.92;;;15.80;99.90;;;;;;4933511;29;20198;-81
2022/09/15 10:50:30;;;;;;;4.97;2.10;;;15.70;99.90;;;;;;4914714;29;20200;-81
2022/09/15 10:53:12;;;;;;;5.88;1.98;;;15.60;99.90;;;;;;4914585;29;20223;-81
2022/09/15 10:55:49;;;;;;;4.95;2.22;;;15.70;99.90;;;;;;4914446;29;20217;-81
2022/09/15 10:58:57;;;;;;;5.28;1.95;;;15.80;99.90;;;;;;4914619;29;20223;-81
2022/09/15 11:01:41;;;;;;;5.40;2.13;;;15.70;99.90;;;;;;4924267;29;20225;-81
2022/09/15 11:04:41;;;;;;;4.22;1.80;;;15.80;99.90;;;;;;4932428;29;20599;-81
2022/09/15 11:07:17;;;;;;;3.50;1.80;;;15.90;99.90;;;;;;4942485;29;20212;-81
2022/09/15 11:09:54;;;;;;;8.55;2.20;;;15.90;99.90;;;;;;4914200;29;20199;-81
2022/09/15 11:12:40;;;;;;;2.63;1.45;;;16.00;99.90;;;;;;4914633;29;20254;-81
2022/09/15 11:15:21;;;;;;;3.95;1.85;;;15.80;99.90;;;;;;4924439;29;20226;-81
2022/09/15 11:18:09;;;;;;;3.42;1.65;;;15.90;99.90;;;;;;4932796;29;20225;-81
2022/09/15 11:20:55;;;;;;;2.17;1.30;;;16.00;99.90;;;;;;4932212;29;20191;-81
2022/09/15 11:23:31;;;;;;;5.88;1.88;;;16.10;99.90;;;;;;4927580;29;20705;-81
2022/09/15 11:26:05;;;;;;;3.78;1.38;;;16.20;99.90;;;;;;4926923;29;20226;-81
2022/09/15 11:28:38;;;;;;;5.25;2.28;;;16.20;99.90;;;;;;4929434;29;20194;-81
2022/09/15 11:31:12;;;;;;;5.18;1.75;;;16.20;99.90;;;;;;4929025;29;20203;-81
2022/09/15 11:33:51;;;;;;;3.75;1.77;;;16.30;99.90;;;;;;4925598;29;20412;-81
2022/09/15 11:36:25;;;;;;;2.92;1.23;;;16.40;99.90;;;;;;4925608;29;20214;-81
2022/09/15 11:39:00;;;;;;;2.97;1.20;;;16.30;99.90;;;;;;4927675;29;20202;-81
2022/09/15 11:41:35;;;;;;;3.85;1.50;;;16.30;99.90;;;;;;4933217;29;20209;-81
2022/09/15 11:44:21;;;;;;;1.80;1.13;;;16.40;99.90;;;;;;4930895;29;20205;-81
2022/09/15 11:47:03;;;;;;;2.67;1.15;;;16.50;99.90;;;;;;4932535;29;20199;-81
2022/09/15 11:49:36;;;;;;;3.78;1.50;;;16.60;99.90;;;;;;4931316;29;20203;-81
2022/09/15 11:52:13;;;;;;;4.70;1.25;;;16.60;99.90;;;;;;4929543;29;20221;-80
2022/09/15 11:54:46;;;;;;;4.88;1.42;;;16.60;99.90;;;;;;4928837;29;20215;-81
2022/09/15 11:57:19;;;;;;;2.00;1.67;;;16.60;99.90;;;;;;4941653;29;20218;-81
2022/09/15 11:59:54;;;;;;;4.82;1.40;;;16.80;99.90;;;;;;4927673;29;20211;-81
2022/09/15 12:02:30;;;;;;;3.95;1.52;;;16.80;99.90;;;;;;4922958;29;20226;-81
2022/09/15 12:05:07;;;;;;;2.88;1.42;;;16.90;99.90;;;;;;4925461;29;20203;-81
2022/09/15 12:07:41;;;;;;;5.13;1.52;;;17.10;99.90;;;;;;4925567;29;20206;-81
2022/09/15 12:10:17;;;;;;;3.45;1.75;;;17.30;99.90;;;;;;4931091;29;20283;-81
2022/09/15 12:12:50;;;;;;;4.68;2.08;;;17.40;99.90;;;;;;4928855;29;20227;-81
2022/09/15 12:15:25;;;;;;;4.85;1.83;;;17.60;99.90;;;;;;4929523;29;20203;-81
2022/09/15 12:18:02;;;;;;;3.97;1.65;;;17.50;99.90;;;;;;4930118;29;20226;-81
2022/09/15 12:20:36;;;;;;;4.40;1.83;;;17.40;99.90;;;;;;4929742;29;20200;-81
2022/09/15 12:23:15;;;;;;;4.22;1.75;;;17.40;99.90;;;;;;4927693;29;20235;-81
2022/09/15 12:25:55;;;;;;;3.60;1.58;;;17.40;99.90;;;;;;4930653;29;20210;-81
2022/09/15 12:28:41;;;;;;;4.05;2.00;;;17.30;99.90;;;;;;4921577;29;20206;-81
2022/09/15 12:31:27;;;;;;;6.97;1.90;;;17.40;99.90;;;;;;4917728;29;20216;-81
2022/09/15 12:33:57;;;;;;;5.00;1.70;;;17.00;99.90;;;;;;4921519;29;20195;-81
2022/09/15 12:36:43;;;;;;;4.05;2.15;;;17.00;99.90;;;;;;4921884;29;20207;-81
2022/09/15 12:39:29;;;;;;;3.80;1.92;;;17.20;99.90;;;;;;4923942;29;20210;-81
2022/09/15 12:42:06;;;;;;;2.80;1.35;;;17.20;99.90;;;;;;4917999;29;20219;-81
2022/09/15 12:44:37;;;;;;;2.13;1.27;;;17.20;99.90;;;;;;4920516;29;20207;-81
2022/09/15 12:47:17;;;;;;;3.75;1.55;;;17.10;99.90;;;;;;4923751;29;20221;-81
2022/09/15 12:49:48;;;;;;;4.28;1.98;;;17.10;99.90;;;;;;4917083;29;20210;-81
2022/09/15 12:52:17;;;;;;;3.90;1.40;;;17.20;99.90;;;;;;4920384;29;20229;-81
2022/09/15 12:54:50;;;;;;;4.82;1.25;;;17.20;99.90;;;;;;4921756;29;20213;-81
2022/09/15 12:57:24;;;;;;;5.03;1.60;;;17.30;99.90;;;;;;4921583;29;20234;-81
2022/09/15 13:00:17;;;;;;;2.72;1.40;;;17.50;99.90;;;;;;4917372;29;20203;-81